Bostonia, California
Current Conditions -  °F | °C
As of 8:53 PM on Sunday 21 Dec 2014 (Local Time) from KMYF Reporting Station
Haze Haze  
Wind Chill: 57°   Ceiling: Unl
Heat Index: 57°   Visibility: 6mi
Dew Point: 54°   Wind: 5mph
Humidity: 89%   Direction: 40°NE
Pressure: 30.06"   Gusts: NA
Location:  32.81°N, 116.93°W
Report Text: KMYF 220453Z 04004KT 6SM BR CLR 14/12 A3006 RMK AO2 SLP177 T01390122
Loading
Personal Weather Stations






























Interactive Weather Map New forecast layout! Learn more

10-Day Weather Forecast

Advertisements
Track Severe Weather on mobile